Time;durP1;ratioP1;P1;durP2;ratioP2;P2;SDS_P1;SDS_P2;PMS_P1;PMS_P2;Temp;Humidity;BMP_temperature;BMP_pressure;BME280_temperature;BME280_humidity;BME280_pressure;Samples;Min_cycle;Max_cycle;Signal;HPM_P1;HPM_P2
2023/07/26 00:01:32;;;;;;;7.90;2.70;;;14.00;99.90;;;;;;5032732;28;20048;-73
2023/07/26 00:03:58;;;;;;;4.60;2.58;;;14.00;99.90;;;;;;5016208;28;20439;-73
2023/07/26 00:06:30;;;;;;;6.05;2.90;;;14.00;99.90;;;;;;5032313;28;20468;-73
2023/07/26 00:08:56;;;;;;;5.45;3.20;;;14.00;99.90;;;;;;5032582;28;20048;-73
2023/07/26 00:11:22;;;;;;;8.18;2.65;;;14.00;99.90;;;;;;5032353;28;20037;-73
2023/07/26 00:13:48;;;;;;;5.07;2.78;;;14.00;99.90;;;;;;5032149;28;20041;-73
2023/07/26 00:16:14;;;;;;;6.32;2.90;;;14.00;99.90;;;;;;5032263;28;20038;-73
2023/07/26 00:18:39;;;;;;;7.30;2.83;;;14.00;99.90;;;;;;5032221;28;20041;-73
2023/07/26 00:21:08;;;;;;;4.90;2.70;;;14.00;99.90;;;;;;5032180;28;20037;-73
2023/07/26 00:23:33;;;;;;;6.20;2.80;;;14.10;99.90;;;;;;5015664;28;20490;-73
2023/07/26 00:25:59;;;;;;;5.25;2.78;;;14.10;99.90;;;;;;5032065;28;20048;-73
2023/07/26 00:28:25;;;;;;;8.60;2.90;;;14.10;99.90;;;;;;5015917;28;20064;-73
2023/07/26 00:30:50;;;;;;;6.97;3.17;;;14.10;99.90;;;;;;5031999;28;20034;-73
2023/07/26 00:33:16;;;;;;;4.82;2.53;;;14.10;99.90;;;;;;5032011;28;20033;-73
2023/07/26 00:35:42;;;;;;;6.80;2.97;;;14.10;99.90;;;;;;5032035;28;20070;-73
2023/07/26 00:38:09;;;;;;;7.75;2.90;;;14.10;99.90;;;;;;5032211;28;20041;-73
2023/07/26 00:40:36;;;;;;;7.38;2.95;;;14.00;99.90;;;;;;5015667;28;20057;-73
2023/07/26 00:43:01;;;;;;;6.30;2.78;;;14.10;99.90;;;;;;5031857;28;20037;-73
2023/07/26 00:45:29;;;;;;;4.68;2.60;;;14.00;99.90;;;;;;5031768;28;20131;-73
2023/07/26 00:47:55;;;;;;;5.93;3.22;;;14.00;99.90;;;;;;5031872;28;20117;-73
2023/07/26 00:50:21;;;;;;;5.40;3.20;;;14.00;99.90;;;;;;5031629;28;20037;-73
2023/07/26 00:52:48;;;;;;;9.18;3.15;;;14.00;99.90;;;;;;5032019;28;20064;-73
2023/07/26 00:55:14;;;;;;;6.72;3.05;;;14.00;99.90;;;;;;5031798;28;20079;-73
2023/07/26 00:57:42;;;;;;;5.75;2.78;;;14.00;99.90;;;;;;5031740;28;20037;-73
2023/07/26 01:00:08;;;;;;;5.72;3.00;;;14.00;99.90;;;;;;5031678;28;20060;-73
2023/07/26 01:02:35;;;;;;;5.93;3.08;;;13.90;99.90;;;;;;5031760;28;20050;-73
2023/07/26 01:05:03;;;;;;;6.25;3.15;;;13.90;99.90;;;;;;5031716;28;20099;-73
2023/07/26 01:07:53;;;;;;;6.47;3.00;;;13.90;99.90;;;;;;5031900;28;20441;-73
2023/07/26 01:10:37;;;;;;;6.50;2.80;;;13.90;99.90;;;;;;5031629;28;20045;-73
2023/07/26 01:13:25;;;;;;;5.57;2.90;;;13.80;99.90;;;;;;5031669;28;20038;-73
2023/07/26 01:15:51;;;;;;;3.67;2.67;;;13.80;99.90;;;;;;5031872;28;20510;-73
2023/07/26 01:18:17;;;;;;;7.00;2.88;;;13.80;99.90;;;;;;5031526;28;20041;-73
2023/07/26 01:20:43;;;;;;;5.85;2.80;;;13.80;99.90;;;;;;5031484;28;20049;-73
2023/07/26 01:23:10;;;;;;;5.50;2.97;;;13.80;99.90;;;;;;5031549;28;20045;-73
2023/07/26 01:25:36;;;;;;;5.15;2.63;;;13.80;99.90;;;;;;5033020;28;20405;-73
2023/07/26 01:28:02;;;;;;;5.57;2.90;;;13.80;99.90;;;;;;5035635;28;20495;-73
2023/07/26 01:30:30;;;;;;;7.60;2.70;;;13.80;99.90;;;;;;5035463;28;20049;-73
2023/07/26 01:32:58;;;;;;;6.25;2.80;;;13.80;99.90;;;;;;5035277;28;20084;-73
2023/07/26 01:35:24;;;;;;;4.63;2.65;;;13.80;99.90;;;;;;5035254;28;20068;-73
2023/07/26 01:37:53;;;;;;;6.18;2.90;;;13.70;99.90;;;;;;5035193;28;20045;-73
2023/07/26 01:40:20;;;;;;;6.30;2.72;;;13.70;99.90;;;;;;5035306;28;20045;-73
2023/07/26 01:42:47;;;;;;;4.80;2.67;;;13.60;99.90;;;;;;5018636;28;20091;-73
2023/07/26 01:45:12;;;;;;;7.10;3.05;;;13.60;99.90;;;;;;5035054;28;20452;-73
2023/07/26 01:47:38;;;;;;;9.82;2.90;;;13.60;99.90;;;;;;5034950;28;20493;-73
2023/07/26 01:50:05;;;;;;;5.55;3.08;;;13.50;99.90;;;;;;5035097;28;20033;-73
2023/07/26 01:52:30;;;;;;;6.75;3.15;;;13.50;99.90;;;;;;5034940;28;20037;-73
2023/07/26 01:54:56;;;;;;;4.32;3.00;;;13.50;99.90;;;;;;5034924;28;20049;-73
2023/07/26 01:57:24;;;;;;;8.45;3.67;;;13.40;99.90;;;;;;5034830;28;20044;-73
2023/07/26 01:59:50;;;;;;;6.05;3.40;;;13.40;99.90;;;;;;5034699;28;20045;-73
2023/07/26 02:02:16;;;;;;;5.90;3.25;;;13.40;99.90;;;;;;5034728;28;20130;-73
2023/07/26 02:04:43;;;;;;;5.22;3.03;;;13.30;99.90;;;;;;5034964;28;20048;-73
2023/07/26 02:07:08;;;;;;;9.43;3.60;;;13.30;99.90;;;;;;5034583;28;20049;-73
2023/07/26 02:09:34;;;;;;;6.30;3.33;;;13.20;99.90;;;;;;5034561;28;20120;-73
2023/07/26 02:12:00;;;;;;;7.68;3.75;;;13.20;99.90;;;;;;5034557;28;20069;-73
2023/07/26 02:14:25;;;;;;;5.45;3.53;;;13.20;99.90;;;;;;5034800;28;20135;-73
2023/07/26 02:16:51;;;;;;;5.55;3.78;;;13.20;99.90;;;;;;5034472;28;20454;-73
2023/07/26 02:19:16;;;;;;;4.68;3.38;;;13.10;99.90;;;;;;5034632;28;20045;-73
2023/07/26 02:21:43;;;;;;;8.10;3.83;;;13.10;99.90;;;;;;5034340;28;20418;-73
2023/07/26 02:24:08;;;;;;;5.57;3.53;;;13.10;99.90;;;;;;5018123;28;20037;-73
2023/07/26 02:26:34;;;;;;;5.97;3.70;;;13.10;99.90;;;;;;5034159;28;20445;-73
2023/07/26 02:29:00;;;;;;;6.70;3.92;;;13.10;99.90;;;;;;5034435;28;20068;-73
2023/07/26 02:31:25;;;;;;;9.50;3.50;;;13.10;99.90;;;;;;5017747;28;20484;-73
2023/07/26 02:33:51;;;;;;;7.90;3.83;;;13.00;99.90;;;;;;5034168;28;20033;-73
2023/07/26 02:36:16;;;;;;;7.97;3.95;;;13.00;99.90;;;;;;5017004;28;20156;-73
2023/07/26 02:38:42;;;;;;;6.22;3.45;;;13.00;99.90;;;;;;5033395;28;20046;-73
2023/07/26 02:41:08;;;;;;;7.85;4.03;;;13.00;99.90;;;;;;5033936;28;20045;-73
2023/07/26 02:43:33;;;;;;;6.43;3.50;;;13.00;99.90;;;;;;5034027;28;20128;-73
2023/07/26 02:45:59;;;;;;;7.00;3.65;;;13.00;99.90;;;;;;5017381;28;20176;-73
2023/07/26 02:48:25;;;;;;;5.43;3.25;;;13.00;99.90;;;;;;5017443;28;20072;-73
2023/07/26 02:50:50;;;;;;;5.40;3.22;;;12.90;99.90;;;;;;5033659;28;20041;-73
2023/07/26 02:53:16;;;;;;;9.23;3.58;;;13.00;99.90;;;;;;5033853;28;20034;-73
2023/07/26 02:55:42;;;;;;;4.68;3.00;;;13.00;99.90;;;;;;5033779;28;20036;-73
2023/07/26 02:58:08;;;;;;;7.07;3.78;;;12.90;99.90;;;;;;5033706;28;20042;-73
2023/07/26 03:00:34;;;;;;;5.57;3.40;;;12.90;99.90;;;;;;5033565;28;20087;-73
2023/07/26 03:02:59;;;;;;;5.35;3.58;;;12.90;99.90;;;;;;5033584;28;20037;-73
2023/07/26 03:05:25;;;;;;;4.77;3.17;;;12.90;99.90;;;;;;5033524;28;20129;-73
2023/07/26 03:07:51;;;;;;;6.18;3.33;;;12.80;99.90;;;;;;5017260;28;20247;-73
2023/07/26 03:10:17;;;;;;;7.63;3.58;;;12.80;99.90;;;;;;5033416;28;20495;-73
2023/07/26 03:12:43;;;;;;;5.38;3.58;;;12.80;99.90;;;;;;5033456;28;20038;-73
2023/07/26 03:15:09;;;;;;;6.13;3.70;;;12.80;99.90;;;;;;5033616;28;20073;-73
2023/07/26 03:17:35;;;;;;;6.95;3.47;;;12.80;99.90;;;;;;5033609;28;20071;-73
2023/07/26 03:20:01;;;;;;;5.25;3.65;;;12.80;99.90;;;;;;5033524;28;20490;-74
2023/07/26 03:22:26;;;;;;;8.38;3.88;;;12.80;99.90;;;;;;5033250;28;20383;-74
2023/07/26 03:24:52;;;;;;;6.55;3.30;;;12.80;99.90;;;;;;5033210;28;20048;-73
2023/07/26 03:27:17;;;;;;;5.57;3.78;;;12.80;99.90;;;;;;5033097;28;20046;-73
2023/07/26 03:29:43;;;;;;;5.63;3.53;;;12.80;99.90;;;;;;5033282;28;20037;-73
2023/07/26 03:32:09;;;;;;;7.85;3.83;;;12.80;99.90;;;;;;5033321;28;20439;-73
2023/07/26 03:34:35;;;;;;;9.73;3.38;;;12.80;99.90;;;;;;5017383;28;20088;-73
2023/07/26 03:37:01;;;;;;;6.65;3.65;;;12.80;99.90;;;;;;5032943;28;20123;-73
2023/07/26 03:39:27;;;;;;;4.93;3.45;;;12.80;99.90;;;;;;5016604;28;20401;-73
2023/07/26 03:41:53;;;;;;;4.63;3.50;;;12.80;99.90;;;;;;5032933;28;20497;-73
2023/07/26 03:44:18;;;;;;;6.40;3.72;;;12.80;99.90;;;;;;5032857;28;20045;-73
2023/07/26 03:46:44;;;;;;;5.00;3.60;;;12.80;99.90;;;;;;5016262;28;20045;-73
2023/07/26 03:49:09;;;;;;;7.32;3.95;;;12.80;99.90;;;;;;5032101;28;20048;-73
2023/07/26 03:51:35;;;;;;;5.18;3.55;;;12.70;99.90;;;;;;5032763;28;20045;-73
2023/07/26 03:54:01;;;;;;;7.13;4.00;;;12.70;99.90;;;;;;5032724;28;20037;-73
2023/07/26 03:56:26;;;;;;;7.47;3.92;;;12.80;99.90;;;;;;5032649;28;20041;-73
2023/07/26 03:58:52;;;;;;;5.50;3.80;;;12.80;99.90;;;;;;5032586;28;20041;-73
2023/07/26 04:01:18;;;;;;;6.57;3.70;;;12.80;99.90;;;;;;5032491;28;20056;-73
2023/07/26 04:03:43;;;;;;;7.82;3.72;;;12.80;99.90;;;;;;5032498;28;20034;-73
2023/07/26 04:06:13;;;;;;;7.97;3.63;;;12.70;99.90;;;;;;5032619;28;20038;-73
2023/07/26 04:08:39;;;;;;;7.93;3.75;;;12.80;99.90;;;;;;5015932;28;20037;-73
2023/07/26 04:11:06;;;;;;;6.45;3.83;;;12.80;99.90;;;;;;5032363;28;20049;-73
2023/07/26 04:13:31;;;;;;;4.85;3.63;;;12.80;99.90;;;;;;5032623;28;20062;-73
2023/07/26 04:15:57;;;;;;;6.45;3.42;;;12.80;99.90;;;;;;5032236;28;20414;-73
2023/07/26 04:18:23;;;;;;;7.22;4.25;;;12.80;99.90;;;;;;5032241;28;20049;-73
2023/07/26 04:20:49;;;;;;;6.63;3.80;;;12.90;99.90;;;;;;5016525;28;20038;-73
2023/07/26 04:23:14;;;;;;;7.28;3.38;;;13.00;99.90;;;;;;5032200;28;20044;-73
2023/07/26 04:25:40;;;;;;;7.13;3.65;;;13.00;99.90;;;;;;5032074;28;20084;-73
2023/07/26 04:28:06;;;;;;;7.03;3.92;;;13.00;99.90;;;;;;5032111;28;20044;-73
2023/07/26 04:30:31;;;;;;;7.15;3.65;;;13.00;99.90;;;;;;5015726;28;20041;-73
2023/07/26 04:32:57;;;;;;;8.68;3.95;;;13.00;99.90;;;;;;5032269;28;20040;-73
2023/07/26 04:35:23;;;;;;;10.57;4.65;;;13.00;99.90;;;;;;5032263;28;20393;-73
2023/07/26 04:37:49;;;;;;;7.50;4.10;;;13.00;99.90;;;;;;5015523;28;20462;-73
2023/07/26 04:40:15;;;;;;;5.93;4.00;;;13.00;99.90;;;;;;5031949;28;20048;-73
2023/07/26 04:42:40;;;;;;;6.00;4.10;;;13.00;99.90;;;;;;5031918;28;20045;-73
2023/07/26 04:45:06;;;;;;;7.53;4.38;;;13.00;99.90;;;;;;5031918;28;20052;-73
2023/07/26 04:47:33;;;;;;;7.78;4.43;;;13.00;99.90;;;;;;5015447;28;20120;-73
2023/07/26 04:49:59;;;;;;;6.45;4.00;;;13.10;99.90;;;;;;5031688;28;20504;-73
2023/07/26 04:52:25;;;;;;;7.88;3.88;;;13.10;99.90;;;;;;5015345;28;20509;-73
2023/07/26 04:54:51;;;;;;;5.38;4.28;;;13.10;99.90;;;;;;5031710;28;20042;-73
2023/07/26 04:57:16;;;;;;;6.13;3.67;;;13.10;99.90;;;;;;5032034;28;20045;-73
2023/07/26 04:59:42;;;;;;;7.95;3.58;;;13.10;99.90;;;;;;5015310;28;20473;-73
2023/07/26 05:02:08;;;;;;;5.30;3.80;;;13.10;99.90;;;;;;5035723;28;20045;-73
2023/07/26 05:04:34;;;;;;;8.05;3.65;;;13.10;99.90;;;;;;5035821;28;20043;-73
2023/07/26 05:07:00;;;;;;;6.15;3.97;;;13.10;99.90;;;;;;5035994;28;20053;-73
2023/07/26 05:09:25;;;;;;;6.38;3.47;;;13.20;99.90;;;;;;5035653;28;20029;-73
2023/07/26 05:11:51;;;;;;;6.13;4.05;;;13.20;99.90;;;;;;5035719;28;20080;-73
2023/07/26 05:14:17;;;;;;;6.95;3.97;;;13.20;99.90;;;;;;5035693;28;20029;-73
2023/07/26 05:16:43;;;;;;;7.45;3.88;;;13.30;99.90;;;;;;5035634;28;20087;-73
2023/07/26 05:19:08;;;;;;;11.95;3.75;;;13.30;99.90;;;;;;5035719;28;20041;-73
2023/07/26 05:21:34;;;;;;;7.97;4.18;;;13.30;99.90;;;;;;5035523;28;20473;-73
2023/07/26 05:24:00;;;;;;;10.32;4.18;;;13.30;99.90;;;;;;5035503;28;20120;-73
2023/07/26 05:26:25;;;;;;;5.50;3.33;;;13.30;99.90;;;;;;5035389;28;20041;-73
2023/07/26 05:28:51;;;;;;;5.03;4.20;;;13.30;99.90;;;;;;5035530;28;20037;-73
2023/07/26 05:31:16;;;;;;;6.60;4.00;;;13.20;99.90;;;;;;5035280;28;20037;-73
2023/07/26 05:33:42;;;;;;;7.88;4.32;;;13.30;99.90;;;;;;5035330;28;20041;-73
2023/07/26 05:36:08;;;;;;;6.60;4.32;;;13.30;99.90;;;;;;5035255;28;20094;-73
2023/07/26 05:38:34;;;;;;;7.28;4.40;;;13.30;99.90;;;;;;5035219;28;20052;-73
2023/07/26 05:41:04;;;;;;;9.32;4.70;;;13.30;99.90;;;;;;5035102;28;20041;-73
2023/07/26 05:43:30;;;;;;;7.05;4.70;;;13.40;99.90;;;;;;5035084;28;20524;-73
2023/07/26 05:45:55;;;;;;;9.60;4.80;;;13.40;99.90;;;;;;5035012;28;20042;-73
2023/07/26 05:48:21;;;;;;;6.57;4.40;;;13.40;99.90;;;;;;5018571;28;20140;-73
2023/07/26 05:50:48;;;;;;;6.88;4.70;;;13.50;99.90;;;;;;5035000;28;20518;-73
2023/07/26 05:53:14;;;;;;;5.88;4.25;;;13.60;99.90;;;;;;5035250;28;20045;-73
2023/07/26 05:55:40;;;;;;;6.88;4.28;;;13.70;99.90;;;;;;5018355;28;20037;-73
2023/07/26 05:58:05;;;;;;;7.28;4.57;;;13.70;99.90;;;;;;5034819;28;20040;-73
2023/07/26 06:00:31;;;;;;;6.55;4.10;;;13.80;99.90;;;;;;5018280;28;20045;-73
2023/07/26 06:02:57;;;;;;;5.57;3.80;;;13.80;99.90;;;;;;5034811;28;20038;-73
2023/07/26 06:05:23;;;;;;;5.88;4.20;;;13.80;99.90;;;;;;5019094;28;20033;-73
2023/07/26 06:07:49;;;;;;;7.68;4.20;;;13.80;99.90;;;;;;5034648;28;20045;-73
2023/07/26 06:10:15;;;;;;;10.63;3.75;;;13.90;99.90;;;;;;5034612;28;20513;-73
2023/07/26 06:12:41;;;;;;;5.07;3.70;;;13.90;99.90;;;;;;5034266;28;20038;-73
2023/07/26 06:15:07;;;;;;;5.90;4.45;;;13.90;99.90;;;;;;5034872;28;20128;-73
2023/07/26 06:17:33;;;;;;;6.82;4.28;;;14.00;99.90;;;;;;5034948;28;20038;-74
2023/07/26 06:19:59;;;;;;;4.93;3.75;;;14.00;99.90;;;;;;5034634;28;20099;-73
2023/07/26 06:22:25;;;;;;;6.10;4.32;;;14.10;99.90;;;;;;5034707;28;20128;-73
2023/07/26 06:24:50;;;;;;;9.23;3.85;;;14.10;99.90;;;;;;5034803;28;20068;-73
2023/07/26 06:27:25;;;;;;;6.30;3.72;;;14.10;99.90;;;;;;5034238;28;20418;-73
2023/07/26 06:29:51;;;;;;;6.35;4.63;;;14.10;99.90;;;;;;5034474;28;20046;-73
2023/07/26 06:32:16;;;;;;;5.88;4.07;;;14.20;99.90;;;;;;5034189;28;20042;-73
2023/07/26 06:34:42;;;;;;;7.38;4.57;;;14.20;99.90;;;;;;5017706;28;20040;-73
2023/07/26 06:37:08;;;;;;;7.35;4.20;;;14.10;99.90;;;;;;5034118;28;20140;-73
2023/07/26 06:39:34;;;;;;;8.05;4.32;;;14.10;99.90;;;;;;5017783;28;20128;-74
2023/07/26 06:42:00;;;;;;;5.82;3.67;;;14.20;99.90;;;;;;5017775;28;20056;-74
2023/07/26 06:44:25;;;;;;;7.15;4.20;;;14.10;99.90;;;;;;5033968;28;20510;-73
2023/07/26 06:46:51;;;;;;;6.40;4.32;;;14.20;99.90;;;;;;5033838;28;20041;-73
2023/07/26 06:49:17;;;;;;;6.82;4.25;;;14.20;99.90;;;;;;5034019;28;20056;-73
2023/07/26 06:51:42;;;;;;;7.35;4.20;;;14.20;99.90;;;;;;5017767;28;20089;-73
2023/07/26 06:54:08;;;;;;;8.43;5.05;;;14.20;99.90;;;;;;5033744;28;20043;-73
2023/07/26 06:56:34;;;;;;;6.47;4.25;;;14.20;99.90;;;;;;5017289;28;20068;-74
2023/07/26 06:59:01;;;;;;;8.32;4.45;;;14.20;99.90;;;;;;5033804;28;20063;-74
2023/07/26 07:01:27;;;;;;;8.30;4.05;;;14.10;99.90;;;;;;5033635;28;20502;-74
2023/07/26 07:03:52;;;;;;;7.57;4.97;;;14.10;99.90;;;;;;5033618;28;20045;-73
2023/07/26 07:06:18;;;;;;;10.88;5.70;;;14.20;99.90;;;;;;5033554;28;20045;-73
2023/07/26 07:08:44;;;;;;;10.63;5.00;;;14.10;99.90;;;;;;5033521;28;20048;-73
2023/07/26 07:11:09;;;;;;;6.15;4.70;;;14.10;99.90;;;;;;5033389;28;20099;-73
2023/07/26 07:13:36;;;;;;;7.30;4.68;;;14.10;99.90;;;;;;5033432;28;20037;-73
2023/07/26 07:16:05;;;;;;;8.77;5.28;;;14.20;99.90;;;;;;5033401;28;20494;-73
2023/07/26 07:18:32;;;;;;;9.40;5.25;;;14.20;99.90;;;;;;5017056;28;20502;-73
2023/07/26 07:21:00;;;;;;;8.20;5.47;;;14.20;99.90;;;;;;5033141;28;20052;-73
2023/07/26 07:23:27;;;;;;;9.85;4.85;;;14.20;99.90;;;;;;5016153;28;20041;-73
2023/07/26 07:25:53;;;;;;;10.43;5.10;;;14.10;99.90;;;;;;5016677;28;20042;-72
2023/07/26 07:28:19;;;;;;;8.70;5.60;;;14.10;99.90;;;;;;5033474;28;20068;-73
2023/07/26 07:30:45;;;;;;;10.43;5.78;;;14.10;99.90;;;;;;5016654;28;20437;-73
2023/07/26 07:33:11;;;;;;;12.57;5.50;;;14.00;99.90;;;;;;5033084;28;20037;-73
2023/07/26 07:35:38;;;;;;;9.77;3.25;;;14.00;99.90;;;;;;5033013;28;20030;-73
2023/07/26 07:38:03;;;;;;;5.95;2.70;;;13.90;99.90;;;;;;5033315;28;20544;-74
2023/07/26 07:40:29;;;;;;;6.15;2.55;;;13.80;99.90;;;;;;5016484;28;20041;-76
2023/07/26 07:42:55;;;;;;;3.45;2.13;;;13.70;99.90;;;;;;5016485;28;20072;-73
2023/07/26 07:45:20;;;;;;;3.85;2.55;;;13.70;99.90;;;;;;5032889;28;20069;-73
2023/07/26 07:47:46;;;;;;;4.40;2.33;;;13.70;99.90;;;;;;5032765;28;20482;-73
2023/07/26 07:50:12;;;;;;;7.70;2.70;;;13.70;99.90;;;;;;5032582;28;20398;-73
2023/07/26 07:52:37;;;;;;;4.70;1.98;;;13.70;99.90;;;;;;5032769;28;20075;-73
2023/07/26 07:55:03;;;;;;;3.97;2.00;;;13.70;99.90;;;;;;5032722;28;20037;-73
2023/07/26 07:57:29;;;;;;;4.03;1.90;;;13.70;99.90;;;;;;5032872;28;20110;-73
2023/07/26 07:59:55;;;;;;;4.70;1.50;;;13.70;99.90;;;;;;5032738;28;20450;-73
2023/07/26 08:02:20;;;;;;;4.90;1.90;;;13.80;99.90;;;;;;5016105;28;20041;-73
2023/07/26 08:04:46;;;;;;;2.38;1.50;;;13.80;99.90;;;;;;5032769;28;20166;-73
2023/07/26 08:07:11;;;;;;;2.83;1.00;;;13.90;99.90;;;;;;5032383;28;20073;-73
2023/07/26 08:09:37;;;;;;;3.05;1.20;;;13.90;99.90;;;;;;5032355;28;20048;-73
2023/07/26 08:12:03;;;;;;;4.63;1.15;;;14.00;99.90;;;;;;5032668;28;20030;-73
2023/07/26 08:14:29;;;;;;;2.08;1.05;;;14.00;99.90;;;;;;5032352;28;20071;-73
2023/07/26 08:16:54;;;;;;;2.03;1.10;;;14.10;99.90;;;;;;5015833;28;20040;-73
2023/07/26 08:19:20;;;;;;;3.83;1.65;;;14.10;99.90;;;;;;5032219;28;20124;-74
2023/07/26 08:21:46;;;;;;;4.15;1.63;;;14.20;99.90;;;;;;5015817;28;20037;-74
2023/07/26 08:24:11;;;;;;;3.60;2.00;;;14.30;99.90;;;;;;5033544;28;20034;-74
2023/07/26 08:26:37;;;;;;;6.07;3.80;;;14.50;99.90;;;;;;5032324;28;20483;-73
2023/07/26 08:29:03;;;;;;;7.30;3.63;;;14.50;99.90;;;;;;5032012;28;20038;-73
2023/07/26 08:31:29;;;;;;;4.95;4.22;;;14.60;99.90;;;;;;5032254;28;20037;-73
2023/07/26 08:33:54;;;;;;;6.78;4.75;;;14.60;99.90;;;;;;5031891;28;20038;-73
2023/07/26 08:36:20;;;;;;;6.30;4.65;;;14.70;99.90;;;;;;5032046;28;20044;-73
2023/07/26 08:38:46;;;;;;;5.53;4.38;;;14.80;99.90;;;;;;5031905;28;20090;-73
2023/07/26 08:41:12;;;;;;;8.02;5.13;;;14.80;99.90;;;;;;5015420;28;20133;-73
2023/07/26 08:43:39;;;;;;;8.52;6.10;;;14.90;99.90;;;;;;5031937;28;20053;-73
2023/07/26 08:46:09;;;;;;;6.32;4.88;;;15.20;99.90;;;;;;5031806;28;20052;-73
2023/07/26 08:48:37;;;;;;;6.60;3.75;;;15.50;99.90;;;;;;5032070;28;20038;-73
2023/07/26 08:51:03;;;;;;;4.40;3.20;;;15.80;99.90;;;;;;5031656;28;20554;-72
2023/07/26 08:53:30;;;;;;;4.10;3.60;;;16.00;99.90;;;;;;5031822;28;20203;-72
2023/07/26 08:55:56;;;;;;;4.00;3.00;;;16.30;99.90;;;;;;5031836;28;20045;-73
2023/07/26 08:58:21;;;;;;;6.43;3.50;;;16.50;99.90;;;;;;5015356;28;20040;-73
2023/07/26 09:00:47;;;;;;;5.82;2.65;;;16.80;99.90;;;;;;5031738;28;20040;-73
2023/07/26 09:03:14;;;;;;;3.35;2.30;;;16.90;99.90;;;;;;5031793;28;20045;-73
2023/07/26 09:05:40;;;;;;;2.13;1.48;;;17.20;99.90;;;;;;5031710;28;20037;-73
2023/07/26 09:08:05;;;;;;;3.20;1.77;;;17.30;99.90;;;;;;5015215;28;20046;-73
2023/07/26 09:10:32;;;;;;;3.30;1.92;;;17.40;99.90;;;;;;5015313;28;20037;-74
2023/07/26 09:13:14;;;;;;;3.38;1.90;;;17.40;99.90;;;;;;5031692;28;20033;-74
2023/07/26 09:15:42;;;;;;;4.13;1.92;;;17.50;99.90;;;;;;5031903;28;20048;-74
2023/07/26 09:18:09;;;;;;;3.20;2.20;;;17.60;99.90;;;;;;5031900;28;20127;-74
2023/07/26 09:20:36;;;;;;;2.92;2.20;;;17.60;99.90;;;;;;5031478;28;20046;-74
2023/07/26 09:23:06;;;;;;;2.72;1.63;;;17.70;99.90;;;;;;5031558;28;20037;-74
2023/07/26 09:25:32;;;;;;;3.83;2.30;;;17.70;99.90;;;;;;5031556;28;20033;-74
2023/07/26 09:27:59;;;;;;;2.78;2.03;;;17.70;99.90;;;;;;5031468;28;20059;-74
2023/07/26 09:30:25;;;;;;;4.53;2.40;;;17.90;99.90;;;;;;5031447;28;20116;-74
2023/07/26 09:32:51;;;;;;;3.78;2.03;;;18.10;99.90;;;;;;5015013;28;20536;-74
2023/07/26 09:35:17;;;;;;;4.82;1.98;;;18.20;99.90;;;;;;5031461;28;20387;-73
2023/07/26 09:37:43;;;;;;;2.92;1.80;;;18.10;99.90;;;;;;5031735;28;20079;-73
2023/07/26 09:40:09;;;;;;;3.67;2.00;;;17.90;99.90;;;;;;5031315;28;20125;-73
2023/07/26 09:42:46;;;;;;;4.70;2.35;;;17.70;99.90;;;;;;5031427;28;20053;-73
2023/07/26 09:45:19;;;;;;;4.25;2.30;;;17.50;99.90;;;;;;5031354;28;20053;-74
2023/07/26 09:47:46;;;;;;;4.72;2.15;;;17.50;99.90;;;;;;5034278;28;20046;-74
2023/07/26 09:50:26;;;;;;;4.80;2.13;;;17.30;99.90;;;;;;5034825;28;20445;-74
2023/07/26 09:52:55;;;;;;;4.43;2.00;;;17.10;99.90;;;;;;5035023;28;20041;-74
2023/07/26 09:55:27;;;;;;;3.67;1.80;;;16.90;99.90;;;;;;5036029;28;20380;-74
2023/07/26 09:57:54;;;;;;;2.88;1.60;;;16.70;99.90;;;;;;5035185;28;20038;-73
2023/07/26 10:00:26;;;;;;;4.00;2.60;;;16.80;99.90;;;;;;5035108;28;20131;-74
2023/07/26 10:02:59;;;;;;;4.07;2.47;;;16.90;99.90;;;;;;5018397;28;20490;-74
2023/07/26 10:05:27;;;;;;;5.93;3.30;;;17.00;99.90;;;;;;5034819;28;20167;-74
2023/07/26 10:07:54;;;;;;;4.93;3.10;;;17.10;99.90;;;;;;5034663;28;20442;-74
2023/07/26 10:10:22;;;;;;;6.72;3.30;;;17.20;99.90;;;;;;5035107;28;20041;-74
2023/07/26 10:12:51;;;;;;;5.85;3.08;;;17.50;99.90;;;;;;5034930;28;20037;-73
2023/07/26 10:15:17;;;;;;;4.70;3.00;;;17.80;99.90;;;;;;5034944;28;20124;-74
2023/07/26 10:17:49;;;;;;;6.53;2.92;;;18.10;99.90;;;;;;5034506;28;20080;-74
2023/07/26 10:20:15;;;;;;;5.30;2.35;;;18.40;99.90;;;;;;5034789;28;20136;-73
2023/07/26 10:22:43;;;;;;;3.47;2.13;;;18.60;99.90;;;;;;5017964;28;20124;-73
2023/07/26 10:25:09;;;;;;;4.32;1.92;;;18.80;99.90;;;;;;5034638;28;20045;-73
2023/07/26 10:27:36;;;;;;;3.78;2.22;;;19.00;99.90;;;;;;5017772;28;20454;-74
2023/07/26 10:30:02;;;;;;;4.13;2.33;;;19.00;99.90;;;;;;5017706;28;20414;-73
2023/07/26 10:32:28;;;;;;;4.25;2.33;;;19.10;99.90;;;;;;5034266;28;20498;-73
2023/07/26 10:34:55;;;;;;;6.30;3.08;;;19.30;99.90;;;;;;5017706;28;20069;-73
2023/07/26 10:37:21;;;;;;;4.15;2.10;;;19.40;99.90;;;;;;5017759;28;20042;-73
2023/07/26 10:39:48;;;;;;;3.90;2.42;;;19.60;99.90;;;;;;5017970;28;20044;-74
2023/07/26 10:42:29;;;;;;;3.85;1.92;;;19.80;99.90;;;;;;5034355;28;20456;-74
2023/07/26 10:45:00;;;;;;;3.67;1.90;;;19.90;99.90;;;;;;5034210;28;20091;-74
2023/07/26 10:47:26;;;;;;;4.10;1.87;;;19.80;99.90;;;;;;5034018;28;20506;-74
2023/07/26 10:50:03;;;;;;;3.40;1.95;;;19.70;99.90;;;;;;5017601;28;20045;-79
2023/07/26 10:52:36;;;;;;;3.47;1.80;;;19.60;99.90;;;;;;5017910;28;20040;-79
2023/07/26 10:55:26;;;;;;;5.68;2.17;;;19.60;99.90;;;;;;5034422;28;20037;-79
2023/07/26 10:57:52;;;;;;;4.68;2.42;;;19.50;99.90;;;;;;5017155;28;20048;-79
2023/07/26 11:00:31;;;;;;;4.95;2.58;;;19.20;99.90;;;;;;5033949;28;20041;-78
2023/07/26 11:03:01;;;;;;;3.60;2.30;;;19.00;99.90;;;;;;5033771;28;20418;-78
2023/07/26 11:05:29;;;;;;;3.47;2.00;;;18.80;99.90;;;;;;5017270;28;20040;-78
2023/07/26 11:08:01;;;;;;;3.95;1.55;;;18.60;99.90;;;;;;5033638;28;20049;-78
2023/07/26 11:10:28;;;;;;;1.60;1.10;;;18.30;99.90;;;;;;5017173;28;20044;-78
2023/07/26 11:13:06;;;;;;;2.10;0.90;;;18.00;99.90;;;;;;5033832;28;20038;-78
2023/07/26 11:15:33;;;;;;;1.42;0.80;;;17.70;99.90;;;;;;5033497;28;20041;-78
2023/07/26 11:17:59;;;;;;;1.02;0.73;;;17.40;99.90;;;;;;5033402;28;20073;-78
2023/07/26 11:20:24;;;;;;;1.30;0.70;;;17.50;99.90;;;;;;5033613;28;20072;-78
2023/07/26 11:22:50;;;;;;;1.73;0.63;;;17.90;99.90;;;;;;5017132;28;20510;-78
2023/07/26 11:25:16;;;;;;;0.70;0.35;;;18.30;99.90;;;;;;5016877;28;20038;-78
2023/07/26 11:27:43;;;;;;;1.77;0.30;;;18.80;99.90;;;;;;5033245;28;20140;-78
2023/07/26 11:30:14;;;;;;;0.88;0.50;;;19.10;99.90;;;;;;5033227;28;20081;-78
2023/07/26 11:32:48;;;;;;;0.35;0.20;;;19.20;99.90;;;;;;5017071;28;20472;-78
2023/07/26 11:35:16;;;;;;;2.05;0.40;;;19.30;99.90;;;;;;5016715;28;20038;-78
2023/07/26 11:37:55;;;;;;;0.93;0.50;;;19.60;99.90;;;;;;5016979;28;20049;-78
2023/07/26 11:40:21;;;;;;;0.93;0.60;;;19.70;99.90;;;;;;5033044;28;20045;-78
2023/07/26 11:42:48;;;;;;;1.75;0.70;;;19.70;99.90;;;;;;5016877;28;20044;-78
2023/07/26 11:45:15;;;;;;;1.25;0.65;;;19.90;99.90;;;;;;5033143;28;20406;-78
2023/07/26 11:47:41;;;;;;;2.88;1.23;;;20.10;99.90;;;;;;5033080;28;20038;-78
2023/07/26 11:50:07;;;;;;;2.53;1.02;;;20.20;99.60;;;;;;5032680;28;20540;-78
2023/07/26 11:52:33;;;;;;;2.08;1.40;;;20.40;99.50;;;;;;5016315;28;20541;-77
2023/07/26 11:55:01;;;;;;;3.05;1.90;;;20.70;99.20;;;;;;5032707;28;20045;-77
2023/07/26 11:57:28;;;;;;;2.83;1.60;;;20.70;99.40;;;;;;5032784;28;20073;-78
2023/07/26 12:00:03;;;;;;;3.97;1.40;;;20.70;98.90;;;;;;5032585;28;20049;-78
2023/07/26 12:02:29;;;;;;;4.35;1.73;;;20.80;98.50;;;;;;5032691;28;20037;-78
2023/07/26 12:05:14;;;;;;;2.53;1.38;;;20.80;97.90;;;;;;5016293;28;20034;-77
2023/07/26 12:07:51;;;;;;;3.47;1.45;;;21.10;98.80;;;;;;5032363;28;20049;-78
2023/07/26 12:10:17;;;;;;;3.60;1.23;;;21.30;97.80;;;;;;5032135;28;20037;-78
2023/07/26 12:12:44;;;;;;;4.07;1.45;;;21.40;97.20;;;;;;5032451;28;20045;-77
2023/07/26 12:15:11;;;;;;;2.25;1.30;;;21.60;95.90;;;;;;5016181;28;20109;-77
2023/07/26 12:17:52;;;;;;;1.90;1.17;;;21.70;95.90;;;;;;5032369;28;20529;-78
2023/07/26 12:20:18;;;;;;;3.25;1.10;;;21.70;94.60;;;;;;5032534;28;20564;-78
2023/07/26 12:22:52;;;;;;;3.03;1.50;;;21.80;95.00;;;;;;5015847;28;20045;-77
2023/07/26 12:25:19;;;;;;;3.85;1.20;;;22.00;94.10;;;;;;5032314;28;20038;-77
2023/07/26 12:27:46;;;;;;;3.05;1.10;;;22.00;93.40;;;;;;5015623;28;20041;-77
2023/07/26 12:30:13;;;;;;;2.00;1.00;;;22.10;92.90;;;;;;5032348;28;20165;-77
2023/07/26 12:32:38;;;;;;;5.60;1.40;;;22.10;91.90;;;;;;5032109;28;20037;-77
2023/07/26 12:35:36;;;;;;;3.70;1.40;;;22.20;91.80;;;;;;5032459;28;20082;-78
2023/07/26 12:38:12;;;;;;;3.92;1.27;;;22.30;91.20;;;;;;4989667;28;20127;-78
2023/07/26 12:40:38;;;;;;;1.98;1.17;;;22.40;91.00;;;;;;5015450;28;20048;-77
2023/07/26 12:43:24;;;;;;;2.65;1.40;;;22.40;90.60;;;;;;5031970;28;20483;-78
2023/07/26 12:45:50;;;;;;;3.28;1.55;;;22.40;88.30;;;;;;5032258;28;20099;-77